sensor_id;sensor_type;location;lat;lon;timestamp;P1;durP1;ratioP1;P2;durP2;ratioP2
75680;SDS011;64294;49.176;16.626;2022-10-31T00:00:52;18.42;;;9.68;;
75680;SDS011;64294;49.176;16.626;2022-10-31T00:03:17;15.38;;;9.52;;
75680;SDS011;64294;49.176;16.626;2022-10-31T00:05:43;18.40;;;9.48;;
75680;SDS011;64294;49.176;16.626;2022-10-31T00:08:11;16.98;;;8.82;;
75680;SDS011;64294;49.176;16.626;2022-10-31T00:10:37;14.82;;;8.88;;
75680;SDS011;64294;49.176;16.626;2022-10-31T00:13:04;15.27;;;9.13;;
75680;SDS011;64294;49.176;16.626;2022-10-31T00:15:32;14.82;;;8.77;;
75680;SDS011;64294;49.176;16.626;2022-10-31T00:17:58;12.85;;;8.35;;
75680;SDS011;64294;49.176;16.626;2022-10-31T00:20:24;15.68;;;9.25;;
75680;SDS011;64294;49.176;16.626;2022-10-31T00:22:49;16.17;;;9.02;;
75680;SDS011;64294;49.176;16.626;2022-10-31T00:25:14;15.30;;;8.73;;
75680;SDS011;64294;49.176;16.626;2022-10-31T00:27:40;15.48;;;9.63;;
75680;SDS011;64294;49.176;16.626;2022-10-31T00:30:15;16.95;;;9.85;;
75680;SDS011;64294;49.176;16.626;2022-10-31T00:32:40;17.42;;;9.52;;
75680;SDS011;64294;49.176;16.626;2022-10-31T00:35:05;17.27;;;9.93;;
75680;SDS011;64294;49.176;16.626;2022-10-31T00:37:31;22.85;;;10.88;;
75680;SDS011;64294;49.176;16.626;2022-10-31T00:39:56;22.02;;;11.13;;
75680;SDS011;64294;49.176;16.626;2022-10-31T00:42:22;21.00;;;11.25;;
75680;SDS011;64294;49.176;16.626;2022-10-31T00:44:50;20.27;;;10.35;;
75680;SDS011;64294;49.176;16.626;2022-10-31T00:47:16;20.00;;;10.85;;
75680;SDS011;64294;49.176;16.626;2022-10-31T00:49:41;20.60;;;10.55;;
75680;SDS011;64294;49.176;16.626;2022-10-31T00:52:08;21.05;;;10.75;;
75680;SDS011;64294;49.176;16.626;2022-10-31T00:54:33;17.92;;;10.50;;
75680;SDS011;64294;49.176;16.626;2022-10-31T00:56:59;18.17;;;9.30;;
75680;SDS011;64294;49.176;16.626;2022-10-31T00:59:24;17.15;;;9.30;;
75680;SDS011;64294;49.176;16.626;2022-10-31T01:01:52;18.80;;;10.25;;
75680;SDS011;64294;49.176;16.626;2022-10-31T01:04:18;16.45;;;9.88;;
75680;SDS011;64294;49.176;16.626;2022-10-31T01:06:46;16.90;;;9.68;;
75680;SDS011;64294;49.176;16.626;2022-10-31T01:09:13;16.15;;;9.70;;
75680;SDS011;64294;49.176;16.626;2022-10-31T01:11:38;18.23;;;9.95;;
75680;SDS011;64294;49.176;16.626;2022-10-31T01:14:03;21.80;;;11.20;;
75680;SDS011;64294;49.176;16.626;2022-10-31T01:16:29;20.13;;;10.88;;
75680;SDS011;64294;49.176;16.626;2022-10-31T01:18:54;19.85;;;10.45;;
75680;SDS011;64294;49.176;16.626;2022-10-31T01:21:21;20.85;;;10.82;;
75680;SDS011;64294;49.176;16.626;2022-10-31T01:23:48;21.52;;;11.13;;
75680;SDS011;64294;49.176;16.626;2022-10-31T01:26:15;23.85;;;12.23;;
75680;SDS011;64294;49.176;16.626;2022-10-31T01:28:53;20.83;;;11.10;;
75680;SDS011;64294;49.176;16.626;2022-10-31T01:31:20;21.02;;;10.93;;
75680;SDS011;64294;49.176;16.626;2022-10-31T01:33:47;23.42;;;11.32;;
75680;SDS011;64294;49.176;16.626;2022-10-31T01:38:41;19.02;;;10.40;;
75680;SDS011;64294;49.176;16.626;2022-10-31T01:41:07;21.30;;;11.25;;
75680;SDS011;64294;49.176;16.626;2022-10-31T01:46:12;20.05;;;9.43;;
75680;SDS011;64294;49.176;16.626;2022-10-31T01:48:38;24.08;;;10.60;;
75680;SDS011;64294;49.176;16.626;2022-10-31T01:51:05;23.63;;;11.57;;
75680;SDS011;64294;49.176;16.626;2022-10-31T01:53:32;21.90;;;11.45;;
75680;SDS011;64294;49.176;16.626;2022-10-31T01:55:58;23.73;;;11.75;;
75680;SDS011;64294;49.176;16.626;2022-10-31T01:58:25;25.25;;;12.30;;
75680;SDS011;64294;49.176;16.626;2022-10-31T02:00:56;26.13;;;13.27;;
75680;SDS011;64294;49.176;16.626;2022-10-31T02:03:26;31.02;;;13.02;;
75680;SDS011;64294;49.176;16.626;2022-10-31T02:05:54;30.90;;;13.00;;
75680;SDS011;64294;49.176;16.626;2022-10-31T02:10:52;29.02;;;12.48;;
75680;SDS011;64294;49.176;16.626;2022-10-31T02:13:18;30.77;;;12.48;;
75680;SDS011;64294;49.176;16.626;2022-10-31T02:15:45;29.58;;;13.00;;
75680;SDS011;64294;49.176;16.626;2022-10-31T02:18:17;32.05;;;12.43;;
75680;SDS011;64294;49.176;16.626;2022-10-31T02:26:12;22.85;;;11.20;;
75680;SDS011;64294;49.176;16.626;2022-10-31T02:46:07;18.33;;;9.90;;
75680;SDS011;64294;49.176;16.626;2022-10-31T02:48:42;18.45;;;9.40;;
75680;SDS011;64294;49.176;16.626;2022-10-31T02:51:10;26.40;;;11.07;;
75680;SDS011;64294;49.176;16.626;2022-10-31T02:53:37;25.60;;;11.13;;
75680;SDS011;64294;49.176;16.626;2022-10-31T02:56:14;26.25;;;11.82;;
75680;SDS011;64294;49.176;16.626;2022-10-31T02:58:43;24.95;;;11.25;;
75680;SDS011;64294;49.176;16.626;2022-10-31T03:09:53;33.42;;;14.73;;
75680;SDS011;64294;49.176;16.626;2022-10-31T03:17:49;42.13;;;16.05;;
75680;SDS011;64294;49.176;16.626;2022-10-31T03:20:15;34.53;;;14.07;;
75680;SDS011;64294;49.176;16.626;2022-10-31T03:22:48;30.30;;;13.63;;
75680;SDS011;64294;49.176;16.626;2022-10-31T03:25:13;28.20;;;12.65;;
75680;SDS011;64294;49.176;16.626;2022-10-31T03:27:39;40.38;;;17.13;;
75680;SDS011;64294;49.176;16.626;2022-10-31T03:30:09;44.03;;;19.35;;
75680;SDS011;64294;49.176;16.626;2022-10-31T03:35:34;37.28;;;18.45;;
75680;SDS011;64294;49.176;16.626;2022-10-31T03:38:03;32.53;;;16.90;;
75680;SDS011;64294;49.176;16.626;2022-10-31T03:40:30;39.25;;;16.85;;
75680;SDS011;64294;49.176;16.626;2022-10-31T03:43:00;31.23;;;14.95;;
75680;SDS011;64294;49.176;16.626;2022-10-31T03:45:29;29.55;;;13.30;;
75680;SDS011;64294;49.176;16.626;2022-10-31T03:47:56;26.50;;;12.07;;
75680;SDS011;64294;49.176;16.626;2022-10-31T03:50:25;26.13;;;12.00;;
75680;SDS011;64294;49.176;16.626;2022-10-31T03:53:05;21.63;;;10.43;;
75680;SDS011;64294;49.176;16.626;2022-10-31T03:55:41;22.02;;;9.95;;
75680;SDS011;64294;49.176;16.626;2022-10-31T03:58:15;24.58;;;10.95;;
75680;SDS011;64294;49.176;16.626;2022-10-31T04:00:51;24.75;;;10.50;;
75680;SDS011;64294;49.176;16.626;2022-10-31T04:03:22;19.23;;;9.23;;
75680;SDS011;64294;49.176;16.626;2022-10-31T04:05:51;19.88;;;10.05;;
75680;SDS011;64294;49.176;16.626;2022-10-31T04:08:23;21.88;;;9.43;;
75680;SDS011;64294;49.176;16.626;2022-10-31T04:10:53;17.85;;;8.90;;
75680;SDS011;64294;49.176;16.626;2022-10-31T04:13:23;20.15;;;8.93;;
75680;SDS011;64294;49.176;16.626;2022-10-31T04:15:52;15.20;;;8.32;;
75680;SDS011;64294;49.176;16.626;2022-10-31T04:18:19;17.10;;;8.35;;
75680;SDS011;64294;49.176;16.626;2022-10-31T04:20:45;16.23;;;8.60;;
75680;SDS011;64294;49.176;16.626;2022-10-31T04:23:23;16.58;;;8.52;;
75680;SDS011;64294;49.176;16.626;2022-10-31T04:26:12;16.75;;;7.78;;
75680;SDS011;64294;49.176;16.626;2022-10-31T04:28:38;18.38;;;8.32;;
75680;SDS011;64294;49.176;16.626;2022-10-31T04:31:21;17.55;;;8.98;;
75680;SDS011;64294;49.176;16.626;2022-10-31T04:33:47;16.10;;;7.78;;
75680;SDS011;64294;49.176;16.626;2022-10-31T04:36:15;13.77;;;6.93;;
75680;SDS011;64294;49.176;16.626;2022-10-31T04:38:40;13.93;;;7.40;;
75680;SDS011;64294;49.176;16.626;2022-10-31T04:41:06;13.75;;;7.60;;
75680;SDS011;64294;49.176;16.626;2022-10-31T04:43:31;14.00;;;6.90;;
75680;SDS011;64294;49.176;16.626;2022-10-31T04:45:56;14.35;;;7.75;;
75680;SDS011;64294;49.176;16.626;2022-10-31T04:48:22;14.13;;;7.68;;
75680;SDS011;64294;49.176;16.626;2022-10-31T04:50:48;12.45;;;6.93;;
75680;SDS011;64294;49.176;16.626;2022-10-31T04:53:14;12.18;;;7.22;;
75680;SDS011;64294;49.176;16.626;2022-10-31T04:55:39;12.68;;;6.97;;
75680;SDS011;64294;49.176;16.626;2022-10-31T04:58:04;12.43;;;7.38;;
75680;SDS011;64294;49.176;16.626;2022-10-31T05:00:30;13.02;;;7.07;;
75680;SDS011;64294;49.176;16.626;2022-10-31T05:02:56;11.02;;;6.35;;
75680;SDS011;64294;49.176;16.626;2022-10-31T05:05:26;11.18;;;6.43;;
75680;SDS011;64294;49.176;16.626;2022-10-31T05:07:54;12.40;;;6.85;;
75680;SDS011;64294;49.176;16.626;2022-10-31T05:10:20;13.15;;;6.63;;
75680;SDS011;64294;49.176;16.626;2022-10-31T05:12:48;12.45;;;6.85;;
75680;SDS011;64294;49.176;16.626;2022-10-31T05:15:19;12.07;;;6.15;;
75680;SDS011;64294;49.176;16.626;2022-10-31T05:17:46;11.25;;;6.45;;
75680;SDS011;64294;49.176;16.626;2022-10-31T05:20:12;11.57;;;6.43;;
75680;SDS011;64294;49.176;16.626;2022-10-31T05:22:46;12.85;;;6.82;;
75680;SDS011;64294;49.176;16.626;2022-10-31T05:25:12;11.75;;;6.95;;
75680;SDS011;64294;49.176;16.626;2022-10-31T05:27:42;12.02;;;5.88;;
75680;SDS011;64294;49.176;16.626;2022-10-31T05:30:09;12.27;;;6.70;;
75680;SDS011;64294;49.176;16.626;2022-10-31T05:32:39;10.27;;;5.75;;
75680;SDS011;64294;49.176;16.626;2022-10-31T05:35:11;11.13;;;6.65;;
75680;SDS011;64294;49.176;16.626;2022-10-31T05:37:38;10.95;;;6.97;;
75680;SDS011;64294;49.176;16.626;2022-10-31T05:40:06;13.15;;;6.60;;
75680;SDS011;64294;49.176;16.626;2022-10-31T05:42:34;12.40;;;6.70;;
75680;SDS011;64294;49.176;16.626;2022-10-31T05:45:00;10.63;;;6.43;;
75680;SDS011;64294;49.176;16.626;2022-10-31T05:47:25;11.63;;;6.68;;
75680;SDS011;64294;49.176;16.626;2022-10-31T05:49:52;11.15;;;6.63;;
75680;SDS011;64294;49.176;16.626;2022-10-31T05:52:18;11.95;;;6.63;;
75680;SDS011;64294;49.176;16.626;2022-10-31T05:54:43;8.93;;;5.25;;
75680;SDS011;64294;49.176;16.626;2022-10-31T05:57:09;10.43;;;5.05;;
75680;SDS011;64294;49.176;16.626;2022-10-31T05:59:34;8.55;;;4.80;;
75680;SDS011;64294;49.176;16.626;2022-10-31T06:02:00;9.52;;;5.45;;
75680;SDS011;64294;49.176;16.626;2022-10-31T06:04:26;10.10;;;5.43;;
75680;SDS011;64294;49.176;16.626;2022-10-31T06:06:51;9.35;;;5.03;;
75680;SDS011;64294;49.176;16.626;2022-10-31T06:09:17;7.97;;;4.85;;
75680;SDS011;64294;49.176;16.626;2022-10-31T06:11:42;9.52;;;5.80;;
75680;SDS011;64294;49.176;16.626;2022-10-31T06:14:07;10.27;;;5.85;;
75680;SDS011;64294;49.176;16.626;2022-10-31T06:16:33;8.35;;;5.15;;
75680;SDS011;64294;49.176;16.626;2022-10-31T06:18:58;8.27;;;5.05;;
75680;SDS011;64294;49.176;16.626;2022-10-31T06:21:24;10.02;;;5.85;;
75680;SDS011;64294;49.176;16.626;2022-10-31T06:23:49;11.13;;;6.25;;
75680;SDS011;64294;49.176;16.626;2022-10-31T06:26:15;10.25;;;6.03;;
75680;SDS011;64294;49.176;16.626;2022-10-31T06:28:40;12.30;;;6.40;;
75680;SDS011;64294;49.176;16.626;2022-10-31T06:31:05;19.52;;;9.10;;
75680;SDS011;64294;49.176;16.626;2022-10-31T06:33:31;18.38;;;8.93;;
75680;SDS011;64294;49.176;16.626;2022-10-31T06:35:57;15.60;;;8.55;;
75680;SDS011;64294;49.176;16.626;2022-10-31T06:38:22;19.75;;;9.45;;
75680;SDS011;64294;49.176;16.626;2022-10-31T06:40:48;15.75;;;8.18;;
75680;SDS011;64294;49.176;16.626;2022-10-31T06:43:13;17.73;;;8.73;;
75680;SDS011;64294;49.176;16.626;2022-10-31T06:45:39;17.85;;;9.10;;
75680;SDS011;64294;49.176;16.626;2022-10-31T06:48:06;13.70;;;8.50;;
75680;SDS011;64294;49.176;16.626;2022-10-31T06:50:32;13.60;;;7.55;;
75680;SDS011;64294;49.176;16.626;2022-10-31T06:52:58;16.00;;;8.50;;
75680;SDS011;64294;49.176;16.626;2022-10-31T06:55:26;17.25;;;8.40;;
75680;SDS011;64294;49.176;16.626;2022-10-31T06:57:56;14.25;;;9.25;;
75680;SDS011;64294;49.176;16.626;2022-10-31T07:00:26;14.85;;;8.55;;
75680;SDS011;64294;49.176;16.626;2022-10-31T07:02:53;13.32;;;7.65;;
75680;SDS011;64294;49.176;16.626;2022-10-31T07:05:29;15.52;;;8.20;;
75680;SDS011;64294;49.176;16.626;2022-10-31T07:07:59;13.30;;;7.70;;
75680;SDS011;64294;49.176;16.626;2022-10-31T07:10:27;17.48;;;8.23;;
75680;SDS011;64294;49.176;16.626;2022-10-31T07:12:55;15.57;;;8.50;;
75680;SDS011;64294;49.176;16.626;2022-10-31T07:15:24;20.13;;;9.48;;
75680;SDS011;64294;49.176;16.626;2022-10-31T07:17:53;18.50;;;9.32;;
75680;SDS011;64294;49.176;16.626;2022-10-31T07:20:19;18.58;;;9.85;;
75680;SDS011;64294;49.176;16.626;2022-10-31T07:22:45;20.25;;;9.48;;
75680;SDS011;64294;49.176;16.626;2022-10-31T07:25:11;25.02;;;10.75;;
75680;SDS011;64294;49.176;16.626;2022-10-31T07:27:37;19.45;;;10.38;;
75680;SDS011;64294;49.176;16.626;2022-10-31T07:30:07;18.38;;;9.98;;
75680;SDS011;64294;49.176;16.626;2022-10-31T07:35:09;16.52;;;9.23;;
75680;SDS011;64294;49.176;16.626;2022-10-31T07:37:37;17.88;;;9.15;;
75680;SDS011;64294;49.176;16.626;2022-10-31T07:40:03;18.27;;;9.18;;
75680;SDS011;64294;49.176;16.626;2022-10-31T07:42:34;19.02;;;9.27;;
75680;SDS011;64294;49.176;16.626;2022-10-31T07:45:06;20.93;;;8.87;;
75680;SDS011;64294;49.176;16.626;2022-10-31T07:47:41;18.98;;;9.02;;
75680;SDS011;64294;49.176;16.626;2022-10-31T07:50:11;17.48;;;8.57;;
75680;SDS011;64294;49.176;16.626;2022-10-31T07:52:41;14.75;;;8.18;;
75680;SDS011;64294;49.176;16.626;2022-10-31T07:55:06;17.75;;;8.23;;
75680;SDS011;64294;49.176;16.626;2022-10-31T07:57:34;16.77;;;9.15;;
75680;SDS011;64294;49.176;16.626;2022-10-31T08:00:06;17.40;;;8.65;;
75680;SDS011;64294;49.176;16.626;2022-10-31T08:02:33;14.23;;;8.20;;
75680;SDS011;64294;49.176;16.626;2022-10-31T08:04:59;17.55;;;7.93;;
75680;SDS011;64294;49.176;16.626;2022-10-31T08:07:25;14.57;;;8.23;;
75680;SDS011;64294;49.176;16.626;2022-10-31T08:09:51;15.07;;;8.02;;
75680;SDS011;64294;49.176;16.626;2022-10-31T08:12:16;14.23;;;7.65;;
75680;SDS011;64294;49.176;16.626;2022-10-31T08:14:42;16.92;;;8.02;;
75680;SDS011;64294;49.176;16.626;2022-10-31T08:17:07;19.75;;;9.38;;
75680;SDS011;64294;49.176;16.626;2022-10-31T08:19:32;22.95;;;8.98;;
75680;SDS011;64294;49.176;16.626;2022-10-31T08:21:58;19.23;;;9.00;;
75680;SDS011;64294;49.176;16.626;2022-10-31T08:24:23;16.65;;;8.50;;
75680;SDS011;64294;49.176;16.626;2022-10-31T08:26:49;19.88;;;9.40;;
75680;SDS011;64294;49.176;16.626;2022-10-31T08:29:14;17.50;;;8.65;;
75680;SDS011;64294;49.176;16.626;2022-10-31T08:31:40;15.02;;;8.27;;
75680;SDS011;64294;49.176;16.626;2022-10-31T08:34:05;20.77;;;9.30;;
75680;SDS011;64294;49.176;16.626;2022-10-31T08:36:34;18.60;;;8.98;;
75680;SDS011;64294;49.176;16.626;2022-10-31T08:39:00;21.02;;;8.80;;
75680;SDS011;64294;49.176;16.626;2022-10-31T08:41:25;21.20;;;8.75;;
75680;SDS011;64294;49.176;16.626;2022-10-31T08:43:50;22.25;;;9.68;;
75680;SDS011;64294;49.176;16.626;2022-10-31T08:46:16;21.48;;;9.98;;
75680;SDS011;64294;49.176;16.626;2022-10-31T08:48:41;26.00;;;12.23;;
75680;SDS011;64294;49.176;16.626;2022-10-31T08:51:08;27.80;;;13.82;;
75680;SDS011;64294;49.176;16.626;2022-10-31T08:53:34;27.42;;;14.15;;
75680;SDS011;64294;49.176;16.626;2022-10-31T08:56:00;25.00;;;12.32;;
75680;SDS011;64294;49.176;16.626;2022-10-31T08:58:25;28.83;;;12.30;;
75680;SDS011;64294;49.176;16.626;2022-10-31T09:00:52;35.63;;;12.27;;
75680;SDS011;64294;49.176;16.626;2022-10-31T09:03:26;34.13;;;13.35;;
75680;SDS011;64294;49.176;16.626;2022-10-31T09:05:57;28.23;;;13.10;;
75680;SDS011;64294;49.176;16.626;2022-10-31T09:08:26;25.83;;;12.18;;
75680;SDS011;64294;49.176;16.626;2022-10-31T09:10:55;28.35;;;11.77;;
75680;SDS011;64294;49.176;16.626;2022-10-31T09:13:21;26.35;;;11.50;;
75680;SDS011;64294;49.176;16.626;2022-10-31T09:15:47;25.13;;;11.98;;
75680;SDS011;64294;49.176;16.626;2022-10-31T09:18:15;25.15;;;11.73;;
75680;SDS011;64294;49.176;16.626;2022-10-31T09:20:42;28.17;;;11.98;;
75680;SDS011;64294;49.176;16.626;2022-10-31T09:25:39;23.23;;;9.45;;
75680;SDS011;64294;49.176;16.626;2022-10-31T09:28:06;23.42;;;8.90;;
75680;SDS011;64294;49.176;16.626;2022-10-31T09:30:34;27.33;;;9.85;;
75680;SDS011;64294;49.176;16.626;2022-10-31T09:33:01;25.08;;;9.40;;
75680;SDS011;64294;49.176;16.626;2022-10-31T09:35:31;25.08;;;9.52;;
75680;SDS011;64294;49.176;16.626;2022-10-31T09:38:01;23.08;;;9.60;;
75680;SDS011;64294;49.176;16.626;2022-10-31T09:43:05;27.70;;;10.23;;
75680;SDS011;64294;49.176;16.626;2022-10-31T09:51:34;22.05;;;10.27;;
75680;SDS011;64294;49.176;16.626;2022-10-31T09:54:06;22.60;;;10.45;;
75680;SDS011;64294;49.176;16.626;2022-10-31T09:56:37;18.60;;;9.65;;
75680;SDS011;64294;49.176;16.626;2022-10-31T09:59:03;21.90;;;10.00;;
75680;SDS011;64294;49.176;16.626;2022-10-31T10:06:52;17.73;;;7.95;;
75680;SDS011;64294;49.176;16.626;2022-10-31T10:09:19;22.40;;;8.50;;
75680;SDS011;64294;49.176;16.626;2022-10-31T10:11:55;14.70;;;8.15;;
75680;SDS011;64294;49.176;16.626;2022-10-31T10:23:02;15.00;;;7.72;;
75680;SDS011;64294;49.176;16.626;2022-10-31T10:25:34;14.93;;;7.80;;
75680;SDS011;64294;49.176;16.626;2022-10-31T10:28:16;15.43;;;7.82;;
75680;SDS011;64294;49.176;16.626;2022-10-31T10:30:54;15.98;;;8.35;;
75680;SDS011;64294;49.176;16.626;2022-10-31T10:33:28;19.08;;;8.10;;
75680;SDS011;64294;49.176;16.626;2022-10-31T10:36:02;19.80;;;9.98;;
75680;SDS011;64294;49.176;16.626;2022-10-31T10:38:38;22.23;;;9.52;;
75680;SDS011;64294;49.176;16.626;2022-10-31T10:41:07;26.52;;;10.52;;
75680;SDS011;64294;49.176;16.626;2022-10-31T10:43:39;26.05;;;11.80;;
75680;SDS011;64294;49.176;16.626;2022-10-31T10:51:44;25.95;;;12.20;;
75680;SDS011;64294;49.176;16.626;2022-10-31T10:54:21;28.98;;;12.00;;
75680;SDS011;64294;49.176;16.626;2022-10-31T10:59:58;30.60;;;11.65;;
75680;SDS011;64294;49.176;16.626;2022-10-31T11:02:27;27.15;;;12.57;;
75680;SDS011;64294;49.176;16.626;2022-10-31T11:04:57;25.38;;;11.20;;
75680;SDS011;64294;49.176;16.626;2022-10-31T11:07:25;24.85;;;11.65;;
75680;SDS011;64294;49.176;16.626;2022-10-31T11:09:50;25.38;;;11.13;;
75680;SDS011;64294;49.176;16.626;2022-10-31T11:12:22;24.65;;;11.02;;
75680;SDS011;64294;49.176;16.626;2022-10-31T11:15:03;20.98;;;10.10;;
75680;SDS011;64294;49.176;16.626;2022-10-31T11:17:34;21.02;;;10.30;;
75680;SDS011;64294;49.176;16.626;2022-10-31T11:20:24;22.77;;;10.02;;
75680;SDS011;64294;49.176;16.626;2022-10-31T11:22:59;18.05;;;8.93;;
75680;SDS011;64294;49.176;16.626;2022-10-31T11:25:30;18.67;;;9.60;;
75680;SDS011;64294;49.176;16.626;2022-10-31T11:28:02;16.63;;;8.60;;
75680;SDS011;64294;49.176;16.626;2022-10-31T11:30:45;19.17;;;9.20;;
75680;SDS011;64294;49.176;16.626;2022-10-31T11:33:17;18.10;;;9.52;;
75680;SDS011;64294;49.176;16.626;2022-10-31T11:35:46;20.30;;;9.20;;
75680;SDS011;64294;49.176;16.626;2022-10-31T11:38:15;16.25;;;7.88;;
75680;SDS011;64294;49.176;16.626;2022-10-31T11:40:53;15.93;;;8.20;;
75680;SDS011;64294;49.176;16.626;2022-10-31T11:43:22;17.17;;;8.52;;
75680;SDS011;64294;49.176;16.626;2022-10-31T11:45:52;17.77;;;8.98;;
75680;SDS011;64294;49.176;16.626;2022-10-31T11:48:19;17.17;;;9.10;;
75680;SDS011;64294;49.176;16.626;2022-10-31T11:50:50;14.25;;;8.30;;
75680;SDS011;64294;49.176;16.626;2022-10-31T11:53:22;15.87;;;8.60;;
75680;SDS011;64294;49.176;16.626;2022-10-31T11:56:05;15.85;;;8.25;;
75680;SDS011;64294;49.176;16.626;2022-10-31T11:58:31;17.00;;;8.18;;
75680;SDS011;64294;49.176;16.626;2022-10-31T12:00:57;18.35;;;9.60;;
75680;SDS011;64294;49.176;16.626;2022-10-31T12:06:05;20.30;;;9.40;;
75680;SDS011;64294;49.176;16.626;2022-10-31T12:08:37;21.35;;;9.02;;
75680;SDS011;64294;49.176;16.626;2022-10-31T12:11:11;18.98;;;8.98;;
75680;SDS011;64294;49.176;16.626;2022-10-31T12:16:18;28.08;;;11.95;;
75680;SDS011;64294;49.176;16.626;2022-10-31T12:24:12;26.20;;;13.45;;
75680;SDS011;64294;49.176;16.626;2022-10-31T12:26:58;18.60;;;10.35;;
75680;SDS011;64294;49.176;16.626;2022-10-31T12:37:21;21.33;;;9.75;;
75680;SDS011;64294;49.176;16.626;2022-10-31T12:53:25;33.00;;;16.88;;
75680;SDS011;64294;49.176;16.626;2022-10-31T12:56:13;36.05;;;17.25;;
75680;SDS011;64294;49.176;16.626;2022-10-31T12:58:53;35.25;;;17.88;;
75680;SDS011;64294;49.176;16.626;2022-10-31T13:01:34;33.90;;;16.55;;
75680;SDS011;64294;49.176;16.626;2022-10-31T13:06:33;37.38;;;16.42;;
75680;SDS011;64294;49.176;16.626;2022-10-31T13:09:05;31.35;;;15.98;;
75680;SDS011;64294;49.176;16.626;2022-10-31T13:11:35;29.30;;;15.07;;
75680;SDS011;64294;49.176;16.626;2022-10-31T13:14:06;32.53;;;14.95;;
75680;SDS011;64294;49.176;16.626;2022-10-31T13:16:37;32.97;;;16.20;;
75680;SDS011;64294;49.176;16.626;2022-10-31T13:19:10;28.65;;;15.43;;
75680;SDS011;64294;49.176;16.626;2022-10-31T13:24:17;46.72;;;23.27;;
75680;SDS011;64294;49.176;16.626;2022-10-31T13:26:56;44.00;;;22.80;;
75680;SDS011;64294;49.176;16.626;2022-10-31T13:34:35;42.35;;;20.77;;
75680;SDS011;64294;49.176;16.626;2022-10-31T13:40:25;35.75;;;20.08;;
75680;SDS011;64294;49.176;16.626;2022-10-31T13:45:25;35.05;;;18.45;;
75680;SDS011;64294;49.176;16.626;2022-10-31T13:47:58;37.75;;;19.55;;
75680;SDS011;64294;49.176;16.626;2022-10-31T13:55:42;41.72;;;20.63;;
75680;SDS011;64294;49.176;16.626;2022-10-31T13:58:26;38.72;;;18.63;;
75680;SDS011;64294;49.176;16.626;2022-10-31T14:03:41;42.95;;;19.98;;
75680;SDS011;64294;49.176;16.626;2022-10-31T14:06:09;57.88;;;21.75;;
75680;SDS011;64294;49.176;16.626;2022-10-31T14:08:36;43.35;;;18.45;;
75680;SDS011;64294;49.176;16.626;2022-10-31T14:11:05;34.30;;;15.93;;
75680;SDS011;64294;49.176;16.626;2022-10-31T14:13:34;30.27;;;14.65;;
75680;SDS011;64294;49.176;16.626;2022-10-31T14:16:28;30.42;;;15.70;;
75680;SDS011;64294;49.176;16.626;2022-10-31T14:19:06;22.98;;;13.35;;
75680;SDS011;64294;49.176;16.626;2022-10-31T14:21:38;23.48;;;11.75;;
75680;SDS011;64294;49.176;16.626;2022-10-31T14:26:57;19.75;;;11.00;;
75680;SDS011;64294;49.176;16.626;2022-10-31T14:29:28;16.77;;;9.75;;
75680;SDS011;64294;49.176;16.626;2022-10-31T14:34:38;20.60;;;10.50;;
75680;SDS011;64294;49.176;16.626;2022-10-31T14:45:28;15.02;;;8.43;;
75680;SDS011;64294;49.176;16.626;2022-10-31T14:51:01;17.00;;;9.05;;
75680;SDS011;64294;49.176;16.626;2022-10-31T14:53:36;15.32;;;8.40;;
75680;SDS011;64294;49.176;16.626;2022-10-31T14:56:16;17.95;;;9.05;;
75680;SDS011;64294;49.176;16.626;2022-10-31T14:58:51;15.35;;;9.07;;
75680;SDS011;64294;49.176;16.626;2022-10-31T15:01:29;13.55;;;7.90;;
75680;SDS011;64294;49.176;16.626;2022-10-31T15:04:00;14.75;;;8.52;;
75680;SDS011;64294;49.176;16.626;2022-10-31T15:06:30;18.52;;;7.78;;
75680;SDS011;64294;49.176;16.626;2022-10-31T15:09:05;16.50;;;8.10;;
75680;SDS011;64294;49.176;16.626;2022-10-31T15:11:35;16.35;;;8.57;;
75680;SDS011;64294;49.176;16.626;2022-10-31T15:14:16;37.25;;;11.02;;
75680;SDS011;64294;49.176;16.626;2022-10-31T15:16:46;19.38;;;8.32;;
75680;SDS011;64294;49.176;16.626;2022-10-31T15:19:14;19.48;;;8.02;;
75680;SDS011;64294;49.176;16.626;2022-10-31T15:21:50;22.23;;;9.85;;
75680;SDS011;64294;49.176;16.626;2022-10-31T15:24:17;20.63;;;9.60;;
75680;SDS011;64294;49.176;16.626;2022-10-31T15:26:44;26.80;;;11.82;;
75680;SDS011;64294;49.176;16.626;2022-10-31T15:29:13;21.30;;;9.75;;
75680;SDS011;64294;49.176;16.626;2022-10-31T15:32:08;17.83;;;10.93;;
75680;SDS011;64294;49.176;16.626;2022-10-31T15:37:13;20.33;;;10.07;;
75680;SDS011;64294;49.176;16.626;2022-10-31T15:39:43;20.60;;;10.55;;
75680;SDS011;64294;49.176;16.626;2022-10-31T15:42:30;17.73;;;10.80;;
75680;SDS011;64294;49.176;16.626;2022-10-31T15:47:36;17.20;;;9.43;;
75680;SDS011;64294;49.176;16.626;2022-10-31T15:50:03;16.70;;;10.23;;
75680;SDS011;64294;49.176;16.626;2022-10-31T15:52:45;18.40;;;10.30;;
75680;SDS011;64294;49.176;16.626;2022-10-31T15:55:18;17.23;;;9.90;;
75680;SDS011;64294;49.176;16.626;2022-10-31T15:57:50;21.52;;;9.73;;
75680;SDS011;64294;49.176;16.626;2022-10-31T16:05:49;20.60;;;10.10;;
75680;SDS011;64294;49.176;16.626;2022-10-31T16:10:50;18.67;;;11.02;;
75680;SDS011;64294;49.176;16.626;2022-10-31T16:13:16;18.73;;;11.18;;
75680;SDS011;64294;49.176;16.626;2022-10-31T16:15:49;30.98;;;11.70;;
75680;SDS011;64294;49.176;16.626;2022-10-31T16:18:20;20.58;;;11.88;;
75680;SDS011;64294;49.176;16.626;2022-10-31T16:20:49;20.65;;;11.48;;
75680;SDS011;64294;49.176;16.626;2022-10-31T16:23:18;19.80;;;11.65;;
75680;SDS011;64294;49.176;16.626;2022-10-31T16:25:45;25.75;;;11.55;;
75680;SDS011;64294;49.176;16.626;2022-10-31T16:28:18;20.67;;;12.38;;
75680;SDS011;64294;49.176;16.626;2022-10-31T16:30:47;20.60;;;11.45;;
75680;SDS011;64294;49.176;16.626;2022-10-31T16:35:50;26.90;;;11.90;;
75680;SDS011;64294;49.176;16.626;2022-10-31T16:38:16;26.25;;;11.50;;
75680;SDS011;64294;49.176;16.626;2022-10-31T16:40:41;21.52;;;11.70;;
75680;SDS011;64294;49.176;16.626;2022-10-31T16:43:09;21.55;;;11.68;;
75680;SDS011;64294;49.176;16.626;2022-10-31T16:45:37;18.27;;;10.55;;
75680;SDS011;64294;49.176;16.626;2022-10-31T16:48:15;23.02;;;12.38;;
75680;SDS011;64294;49.176;16.626;2022-10-31T16:53:10;21.35;;;11.52;;
75680;SDS011;64294;49.176;16.626;2022-10-31T16:55:55;24.23;;;12.30;;
75680;SDS011;64294;49.176;16.626;2022-10-31T16:58:30;21.15;;;11.48;;
75680;SDS011;64294;49.176;16.626;2022-10-31T17:00:58;22.40;;;11.55;;
75680;SDS011;64294;49.176;16.626;2022-10-31T17:03:24;22.23;;;11.48;;
75680;SDS011;64294;49.176;16.626;2022-10-31T17:05:50;22.30;;;12.00;;
75680;SDS011;64294;49.176;16.626;2022-10-31T17:08:18;22.95;;;12.45;;
75680;SDS011;64294;49.176;16.626;2022-10-31T17:10:44;23.98;;;12.63;;
75680;SDS011;64294;49.176;16.626;2022-10-31T17:13:13;27.98;;;13.88;;
75680;SDS011;64294;49.176;16.626;2022-10-31T17:15:44;24.92;;;13.07;;
75680;SDS011;64294;49.176;16.626;2022-10-31T17:18:12;25.90;;;13.80;;
75680;SDS011;64294;49.176;16.626;2022-10-31T17:20:39;25.55;;;12.57;;
75680;SDS011;64294;49.176;16.626;2022-10-31T17:23:05;24.42;;;14.00;;